sensor_id;sensor_type;location;lat;lon;timestamp;P1;durP1;ratioP1;P2;durP2;ratioP2
49502;SDS011;35409;48.776;9.204;2023-02-18T00:01:01;1.48;;;0.70;;
49502;SDS011;35409;48.776;9.204;2023-02-18T00:03:32;0.95;;;0.85;;
49502;SDS011;35409;48.776;9.204;2023-02-18T00:05:57;1.63;;;0.60;;
49502;SDS011;35409;48.776;9.204;2023-02-18T00:08:23;2.60;;;1.10;;
49502;SDS011;35409;48.776;9.204;2023-02-18T00:10:49;3.80;;;0.90;;
49502;SDS011;35409;48.776;9.204;2023-02-18T00:13:15;0.60;;;0.60;;
49502;SDS011;35409;48.776;9.204;2023-02-18T00:15:40;0.65;;;0.63;;
49502;SDS011;35409;48.776;9.204;2023-02-18T00:18:06;1.23;;;0.60;;
49502;SDS011;35409;48.776;9.204;2023-02-18T00:20:32;0.52;;;0.52;;
49502;SDS011;35409;48.776;9.204;2023-02-18T00:23:00;0.57;;;0.57;;
49502;SDS011;35409;48.776;9.204;2023-02-18T00:25:26;0.73;;;0.60;;
49502;SDS011;35409;48.776;9.204;2023-02-18T00:27:52;0.90;;;0.50;;
49502;SDS011;35409;48.776;9.204;2023-02-18T00:30:17;0.82;;;0.55;;
49502;SDS011;35409;48.776;9.204;2023-02-18T00:32:43;2.70;;;0.68;;
49502;SDS011;35409;48.776;9.204;2023-02-18T00:35:09;2.50;;;0.50;;
49502;SDS011;35409;48.776;9.204;2023-02-18T00:37:34;0.88;;;0.68;;
49502;SDS011;35409;48.776;9.204;2023-02-18T00:40:00;0.60;;;0.60;;
49502;SDS011;35409;48.776;9.204;2023-02-18T00:42:25;0.68;;;0.60;;
49502;SDS011;35409;48.776;9.204;2023-02-18T00:44:51;1.08;;;1.00;;
49502;SDS011;35409;48.776;9.204;2023-02-18T00:47:16;2.60;;;1.13;;
49502;SDS011;35409;48.776;9.204;2023-02-18T00:49:42;4.18;;;1.55;;
49502;SDS011;35409;48.776;9.204;2023-02-18T00:52:08;0.80;;;0.60;;
49502;SDS011;35409;48.776;9.204;2023-02-18T00:54:33;2.63;;;0.80;;
49502;SDS011;35409;48.776;9.204;2023-02-18T00:56:59;0.70;;;0.70;;
49502;SDS011;35409;48.776;9.204;2023-02-18T00:59:24;1.08;;;0.60;;
49502;SDS011;35409;48.776;9.204;2023-02-18T01:01:50;1.05;;;0.57;;
49502;SDS011;35409;48.776;9.204;2023-02-18T01:04:16;1.20;;;0.80;;
49502;SDS011;35409;48.776;9.204;2023-02-18T01:06:41;0.75;;;0.68;;
49502;SDS011;35409;48.776;9.204;2023-02-18T01:09:07;1.17;;;0.80;;
49502;SDS011;35409;48.776;9.204;2023-02-18T01:11:34;0.70;;;0.63;;
49502;SDS011;35409;48.776;9.204;2023-02-18T01:13:59;1.45;;;0.63;;
49502;SDS011;35409;48.776;9.204;2023-02-18T01:16:25;0.75;;;0.50;;
49502;SDS011;35409;48.776;9.204;2023-02-18T01:18:51;1.75;;;0.80;;
49502;SDS011;35409;48.776;9.204;2023-02-18T01:21:17;0.63;;;0.57;;
49502;SDS011;35409;48.776;9.204;2023-02-18T01:23:42;1.02;;;0.88;;
49502;SDS011;35409;48.776;9.204;2023-02-18T01:26:09;1.90;;;0.90;;
49502;SDS011;35409;48.776;9.204;2023-02-18T01:28:35;2.28;;;0.82;;
49502;SDS011;35409;48.776;9.204;2023-02-18T01:31:04;0.88;;;0.70;;
49502;SDS011;35409;48.776;9.204;2023-02-18T01:33:31;1.02;;;0.80;;
49502;SDS011;35409;48.776;9.204;2023-02-18T01:35:57;2.63;;;0.75;;
49502;SDS011;35409;48.776;9.204;2023-02-18T01:38:23;0.88;;;0.70;;
49502;SDS011;35409;48.776;9.204;2023-02-18T01:40:49;0.98;;;0.68;;
49502;SDS011;35409;48.776;9.204;2023-02-18T01:43:17;1.67;;;1.50;;
49502;SDS011;35409;48.776;9.204;2023-02-18T01:48:25;1.27;;;1.17;;
49502;SDS011;35409;48.776;9.204;2023-02-18T01:51:07;1.88;;;0.95;;
49502;SDS011;35409;48.776;9.204;2023-02-18T01:53:42;1.85;;;0.90;;
49502;SDS011;35409;48.776;9.204;2023-02-18T01:56:20;0.93;;;0.80;;
49502;SDS011;35409;48.776;9.204;2023-02-18T01:59:10;1.25;;;0.80;;
49502;SDS011;35409;48.776;9.204;2023-02-18T02:01:38;1.13;;;1.10;;
49502;SDS011;35409;48.776;9.204;2023-02-18T02:04:07;1.10;;;1.00;;
49502;SDS011;35409;48.776;9.204;2023-02-18T02:06:33;1.70;;;1.00;;
49502;SDS011;35409;48.776;9.204;2023-02-18T02:08:59;1.48;;;1.00;;
49502;SDS011;35409;48.776;9.204;2023-02-18T02:11:44;0.90;;;0.90;;
49502;SDS011;35409;48.776;9.204;2023-02-18T02:23:08;3.15;;;1.20;;
49502;SDS011;35409;48.776;9.204;2023-02-18T02:26:38;2.30;;;1.10;;
49502;SDS011;35409;48.776;9.204;2023-02-18T02:29:10;1.13;;;1.02;;
49502;SDS011;35409;48.776;9.204;2023-02-18T02:31:55;0.98;;;0.95;;
49502;SDS011;35409;48.776;9.204;2023-02-18T02:42:28;1.40;;;0.88;;
49502;SDS011;35409;48.776;9.204;2023-02-18T02:50:52;1.20;;;1.10;;
49502;SDS011;35409;48.776;9.204;2023-02-18T02:53:27;1.00;;;0.90;;
49502;SDS011;35409;48.776;9.204;2023-02-18T02:55:57;1.70;;;1.13;;
49502;SDS011;35409;48.776;9.204;2023-02-18T02:58:23;1.33;;;0.90;;
49502;SDS011;35409;48.776;9.204;2023-02-18T03:00:55;1.10;;;1.00;;
49502;SDS011;35409;48.776;9.204;2023-02-18T03:11:22;1.17;;;0.90;;
49502;SDS011;35409;48.776;9.204;2023-02-18T03:16:26;1.17;;;1.08;;
49502;SDS011;35409;48.776;9.204;2023-02-18T03:21:35;0.98;;;0.90;;
49502;SDS011;35409;48.776;9.204;2023-02-18T03:24:08;1.27;;;1.00;;
49502;SDS011;35409;48.776;9.204;2023-02-18T03:26:46;1.90;;;0.90;;
49502;SDS011;35409;48.776;9.204;2023-02-18T03:29:15;1.35;;;1.20;;
49502;SDS011;35409;48.776;9.204;2023-02-18T03:31:44;2.47;;;1.33;;
49502;SDS011;35409;48.776;9.204;2023-02-18T03:34:14;0.98;;;0.90;;
49502;SDS011;35409;48.776;9.204;2023-02-18T03:39:15;1.42;;;1.10;;
49502;SDS011;35409;48.776;9.204;2023-02-18T03:41:42;2.17;;;0.80;;
49502;SDS011;35409;48.776;9.204;2023-02-18T03:44:09;1.48;;;0.90;;
49502;SDS011;35409;48.776;9.204;2023-02-18T03:46:36;0.80;;;0.80;;
49502;SDS011;35409;48.776;9.204;2023-02-18T03:49:07;1.38;;;0.95;;
49502;SDS011;35409;48.776;9.204;2023-02-18T03:51:34;3.25;;;1.05;;
49502;SDS011;35409;48.776;9.204;2023-02-18T03:54:00;0.85;;;0.85;;
49502;SDS011;35409;48.776;9.204;2023-02-18T03:56:25;1.70;;;1.10;;
49502;SDS011;35409;48.776;9.204;2023-02-18T03:58:51;1.00;;;0.93;;
49502;SDS011;35409;48.776;9.204;2023-02-18T04:01:16;1.15;;;0.82;;
49502;SDS011;35409;48.776;9.204;2023-02-18T04:03:42;2.10;;;1.08;;
49502;SDS011;35409;48.776;9.204;2023-02-18T04:06:07;1.75;;;1.40;;
49502;SDS011;35409;48.776;9.204;2023-02-18T04:08:33;2.63;;;1.45;;
49502;SDS011;35409;48.776;9.204;2023-02-18T04:10:59;3.35;;;1.20;;
49502;SDS011;35409;48.776;9.204;2023-02-18T04:13:25;1.77;;;1.23;;
49502;SDS011;35409;48.776;9.204;2023-02-18T04:15:51;1.35;;;0.90;;
49502;SDS011;35409;48.776;9.204;2023-02-18T04:18:17;1.00;;;0.90;;
49502;SDS011;35409;48.776;9.204;2023-02-18T04:20:43;1.52;;;1.17;;
49502;SDS011;35409;48.776;9.204;2023-02-18T04:23:10;0.90;;;0.90;;
49502;SDS011;35409;48.776;9.204;2023-02-18T04:25:36;2.08;;;1.00;;
49502;SDS011;35409;48.776;9.204;2023-02-18T04:28:01;1.25;;;0.73;;
49502;SDS011;35409;48.776;9.204;2023-02-18T04:30:27;1.27;;;1.17;;
49502;SDS011;35409;48.776;9.204;2023-02-18T04:32:52;1.42;;;1.20;;
49502;SDS011;35409;48.776;9.204;2023-02-18T04:35:18;1.73;;;1.15;;
49502;SDS011;35409;48.776;9.204;2023-02-18T04:37:44;2.15;;;1.30;;
49502;SDS011;35409;48.776;9.204;2023-02-18T04:40:09;2.22;;;1.10;;
49502;SDS011;35409;48.776;9.204;2023-02-18T04:42:36;1.27;;;1.10;;
49502;SDS011;35409;48.776;9.204;2023-02-18T04:45:01;1.58;;;1.30;;
49502;SDS011;35409;48.776;9.204;2023-02-18T04:47:28;1.33;;;1.08;;
49502;SDS011;35409;48.776;9.204;2023-02-18T04:49:53;1.05;;;1.00;;
49502;SDS011;35409;48.776;9.204;2023-02-18T04:52:19;1.23;;;1.08;;
49502;SDS011;35409;48.776;9.204;2023-02-18T04:54:44;0.95;;;0.90;;
49502;SDS011;35409;48.776;9.204;2023-02-18T04:57:10;2.50;;;1.35;;
49502;SDS011;35409;48.776;9.204;2023-02-18T04:59:36;1.23;;;1.13;;
49502;SDS011;35409;48.776;9.204;2023-02-18T05:02:02;1.17;;;1.08;;
49502;SDS011;35409;48.776;9.204;2023-02-18T05:04:28;1.00;;;0.90;;
49502;SDS011;35409;48.776;9.204;2023-02-18T05:06:54;1.08;;;0.98;;
49502;SDS011;35409;48.776;9.204;2023-02-18T05:09:19;2.00;;;1.48;;
49502;SDS011;35409;48.776;9.204;2023-02-18T05:11:45;1.90;;;1.30;;
49502;SDS011;35409;48.776;9.204;2023-02-18T05:14:14;1.65;;;1.00;;
49502;SDS011;35409;48.776;9.204;2023-02-18T05:16:40;2.78;;;1.67;;
49502;SDS011;35409;48.776;9.204;2023-02-18T05:19:06;2.40;;;1.55;;
49502;SDS011;35409;48.776;9.204;2023-02-18T05:21:32;2.17;;;1.20;;
49502;SDS011;35409;48.776;9.204;2023-02-18T05:23:58;1.30;;;1.20;;
49502;SDS011;35409;48.776;9.204;2023-02-18T05:26:23;1.45;;;1.00;;
49502;SDS011;35409;48.776;9.204;2023-02-18T05:28:49;1.27;;;1.10;;
49502;SDS011;35409;48.776;9.204;2023-02-18T05:31:15;0.82;;;0.82;;
49502;SDS011;35409;48.776;9.204;2023-02-18T05:33:40;1.17;;;0.98;;
49502;SDS011;35409;48.776;9.204;2023-02-18T05:36:06;1.10;;;0.82;;
49502;SDS011;35409;48.776;9.204;2023-02-18T05:38:32;2.38;;;1.00;;
49502;SDS011;35409;48.776;9.204;2023-02-18T05:40:57;1.67;;;0.90;;
49502;SDS011;35409;48.776;9.204;2023-02-18T05:43:23;0.80;;;0.80;;
49502;SDS011;35409;48.776;9.204;2023-02-18T05:45:49;1.40;;;0.90;;
49502;SDS011;35409;48.776;9.204;2023-02-18T05:48:15;1.13;;;1.00;;
49502;SDS011;35409;48.776;9.204;2023-02-18T05:50:40;1.42;;;1.10;;
49502;SDS011;35409;48.776;9.204;2023-02-18T05:53:06;1.45;;;0.98;;
49502;SDS011;35409;48.776;9.204;2023-02-18T05:55:32;1.40;;;1.00;;
49502;SDS011;35409;48.776;9.204;2023-02-18T05:58:02;1.98;;;0.80;;
49502;SDS011;35409;48.776;9.204;2023-02-18T06:00:29;1.05;;;0.90;;
49502;SDS011;35409;48.776;9.204;2023-02-18T06:02:55;1.55;;;1.05;;
49502;SDS011;35409;48.776;9.204;2023-02-18T06:05:22;2.13;;;1.08;;
49502;SDS011;35409;48.776;9.204;2023-02-18T06:07:49;1.38;;;1.10;;
49502;SDS011;35409;48.776;9.204;2023-02-18T06:10:15;1.45;;;0.85;;
49502;SDS011;35409;48.776;9.204;2023-02-18T06:12:42;1.48;;;0.80;;
49502;SDS011;35409;48.776;9.204;2023-02-18T06:15:08;1.33;;;1.17;;
49502;SDS011;35409;48.776;9.204;2023-02-18T06:17:34;1.25;;;0.88;;
49502;SDS011;35409;48.776;9.204;2023-02-18T06:19:59;1.85;;;1.40;;
49502;SDS011;35409;48.776;9.204;2023-02-18T06:22:25;1.60;;;1.33;;
49502;SDS011;35409;48.776;9.204;2023-02-18T06:24:50;1.15;;;0.90;;
49502;SDS011;35409;48.776;9.204;2023-02-18T06:27:16;2.63;;;1.20;;
49502;SDS011;35409;48.776;9.204;2023-02-18T06:29:41;1.33;;;1.20;;
49502;SDS011;35409;48.776;9.204;2023-02-18T06:32:07;1.85;;;1.30;;
49502;SDS011;35409;48.776;9.204;2023-02-18T06:34:33;1.38;;;1.15;;
49502;SDS011;35409;48.776;9.204;2023-02-18T06:36:58;1.80;;;1.05;;
49502;SDS011;35409;48.776;9.204;2023-02-18T06:39:24;1.58;;;1.13;;
49502;SDS011;35409;48.776;9.204;2023-02-18T06:41:49;1.20;;;1.10;;
49502;SDS011;35409;48.776;9.204;2023-02-18T06:44:15;2.25;;;1.30;;
49502;SDS011;35409;48.776;9.204;2023-02-18T06:46:41;2.40;;;1.35;;
49502;SDS011;35409;48.776;9.204;2023-02-18T06:49:07;2.42;;;1.50;;
49502;SDS011;35409;48.776;9.204;2023-02-18T06:51:33;1.38;;;1.10;;
49502;SDS011;35409;48.776;9.204;2023-02-18T06:53:58;2.53;;;1.30;;
49502;SDS011;35409;48.776;9.204;2023-02-18T06:56:25;1.42;;;1.13;;
49502;SDS011;35409;48.776;9.204;2023-02-18T06:58:51;1.95;;;1.20;;
49502;SDS011;35409;48.776;9.204;2023-02-18T07:01:17;1.40;;;1.00;;
49502;SDS011;35409;48.776;9.204;2023-02-18T07:03:42;1.80;;;1.10;;
49502;SDS011;35409;48.776;9.204;2023-02-18T07:06:08;2.10;;;1.30;;
49502;SDS011;35409;48.776;9.204;2023-02-18T07:08:40;2.08;;;1.30;;
49502;SDS011;35409;48.776;9.204;2023-02-18T07:11:05;1.02;;;1.02;;
49502;SDS011;35409;48.776;9.204;2023-02-18T07:13:31;1.23;;;1.13;;
49502;SDS011;35409;48.776;9.204;2023-02-18T07:15:57;1.83;;;1.27;;
49502;SDS011;35409;48.776;9.204;2023-02-18T07:18:22;2.33;;;1.38;;
49502;SDS011;35409;48.776;9.204;2023-02-18T07:20:48;1.73;;;1.10;;
49502;SDS011;35409;48.776;9.204;2023-02-18T07:23:14;1.98;;;1.13;;
49502;SDS011;35409;48.776;9.204;2023-02-18T07:25:39;1.27;;;1.15;;
49502;SDS011;35409;48.776;9.204;2023-02-18T07:28:05;1.60;;;1.48;;
49502;SDS011;35409;48.776;9.204;2023-02-18T07:30:30;1.55;;;1.45;;
49502;SDS011;35409;48.776;9.204;2023-02-18T07:32:56;2.25;;;1.30;;
49502;SDS011;35409;48.776;9.204;2023-02-18T07:35:22;1.58;;;1.25;;
49502;SDS011;35409;48.776;9.204;2023-02-18T07:37:47;1.67;;;1.58;;
49502;SDS011;35409;48.776;9.204;2023-02-18T07:40:15;2.95;;;1.38;;
49502;SDS011;35409;48.776;9.204;2023-02-18T07:42:43;4.20;;;1.23;;
49502;SDS011;35409;48.776;9.204;2023-02-18T07:45:09;1.80;;;1.42;;
49502;SDS011;35409;48.776;9.204;2023-02-18T07:47:35;2.10;;;1.33;;
49502;SDS011;35409;48.776;9.204;2023-02-18T07:50:01;1.48;;;1.20;;
49502;SDS011;35409;48.776;9.204;2023-02-18T07:52:27;2.78;;;1.85;;
49502;SDS011;35409;48.776;9.204;2023-02-18T07:54:53;3.50;;;1.65;;
49502;SDS011;35409;48.776;9.204;2023-02-18T07:57:19;3.38;;;2.00;;
49502;SDS011;35409;48.776;9.204;2023-02-18T07:59:44;2.55;;;1.60;;
49502;SDS011;35409;48.776;9.204;2023-02-18T08:02:20;1.92;;;1.50;;
49502;SDS011;35409;48.776;9.204;2023-02-18T08:04:49;1.60;;;1.50;;
49502;SDS011;35409;48.776;9.204;2023-02-18T08:07:15;2.13;;;1.25;;
49502;SDS011;35409;48.776;9.204;2023-02-18T08:09:43;1.80;;;1.40;;
49502;SDS011;35409;48.776;9.204;2023-02-18T08:12:08;1.58;;;1.48;;
49502;SDS011;35409;48.776;9.204;2023-02-18T08:14:34;2.13;;;1.60;;
49502;SDS011;35409;48.776;9.204;2023-02-18T08:17:00;2.20;;;1.42;;
49502;SDS011;35409;48.776;9.204;2023-02-18T08:19:26;2.03;;;1.70;;
49502;SDS011;35409;48.776;9.204;2023-02-18T08:21:51;3.15;;;1.45;;
49502;SDS011;35409;48.776;9.204;2023-02-18T08:24:17;2.28;;;1.55;;
49502;SDS011;35409;48.776;9.204;2023-02-18T08:26:42;1.95;;;1.30;;
49502;SDS011;35409;48.776;9.204;2023-02-18T08:29:08;5.20;;;1.42;;
49502;SDS011;35409;48.776;9.204;2023-02-18T08:31:34;6.85;;;1.20;;
49502;SDS011;35409;48.776;9.204;2023-02-18T08:34:02;3.45;;;1.35;;
49502;SDS011;35409;48.776;9.204;2023-02-18T08:36:28;1.25;;;1.00;;
49502;SDS011;35409;48.776;9.204;2023-02-18T08:38:54;2.40;;;1.20;;
49502;SDS011;35409;48.776;9.204;2023-02-18T08:41:21;1.83;;;0.90;;
49502;SDS011;35409;48.776;9.204;2023-02-18T08:43:47;1.90;;;1.35;;
49502;SDS011;35409;48.776;9.204;2023-02-18T08:46:13;1.65;;;1.02;;
49502;SDS011;35409;48.776;9.204;2023-02-18T08:48:39;2.95;;;1.42;;
49502;SDS011;35409;48.776;9.204;2023-02-18T08:51:12;1.67;;;1.10;;
49502;SDS011;35409;48.776;9.204;2023-02-18T08:53:40;3.13;;;1.30;;
49502;SDS011;35409;48.776;9.204;2023-02-18T08:56:06;3.88;;;1.30;;
49502;SDS011;35409;48.776;9.204;2023-02-18T08:58:33;1.55;;;1.20;;
49502;SDS011;35409;48.776;9.204;2023-02-18T09:01:01;2.83;;;1.00;;
49502;SDS011;35409;48.776;9.204;2023-02-18T09:05:58;3.80;;;1.20;;
49502;SDS011;35409;48.776;9.204;2023-02-18T09:08:24;1.40;;;0.90;;
49502;SDS011;35409;48.776;9.204;2023-02-18T09:10:53;1.13;;;1.00;;
49502;SDS011;35409;48.776;9.204;2023-02-18T09:13:22;2.20;;;1.00;;
49502;SDS011;35409;48.776;9.204;2023-02-18T09:16:02;1.48;;;0.90;;
49502;SDS011;35409;48.776;9.204;2023-02-18T09:18:36;2.88;;;1.13;;
49502;SDS011;35409;48.776;9.204;2023-02-18T09:21:02;1.25;;;1.15;;
49502;SDS011;35409;48.776;9.204;2023-02-18T09:23:29;1.92;;;0.98;;
49502;SDS011;35409;48.776;9.204;2023-02-18T09:25:55;2.17;;;1.20;;
49502;SDS011;35409;48.776;9.204;2023-02-18T09:28:21;1.23;;;0.85;;
49502;SDS011;35409;48.776;9.204;2023-02-18T09:30:48;2.47;;;0.90;;
49502;SDS011;35409;48.776;9.204;2023-02-18T09:33:13;1.02;;;0.70;;
49502;SDS011;35409;48.776;9.204;2023-02-18T09:35:40;1.35;;;1.05;;
49502;SDS011;35409;48.776;9.204;2023-02-18T09:38:11;1.60;;;1.02;;
49502;SDS011;35409;48.776;9.204;2023-02-18T09:40:41;0.82;;;0.70;;
49502;SDS011;35409;48.776;9.204;2023-02-18T09:45:53;3.47;;;1.23;;
49502;SDS011;35409;48.776;9.204;2023-02-18T09:48:22;3.63;;;1.23;;
49502;SDS011;35409;48.776;9.204;2023-02-18T09:50:52;3.28;;;1.10;;
49502;SDS011;35409;48.776;9.204;2023-02-18T09:53:18;2.53;;;0.82;;
49502;SDS011;35409;48.776;9.204;2023-02-18T09:55:45;2.55;;;1.15;;
49502;SDS011;35409;48.776;9.204;2023-02-18T09:58:14;0.95;;;0.70;;
49502;SDS011;35409;48.776;9.204;2023-02-18T10:00:46;3.47;;;0.85;;
49502;SDS011;35409;48.776;9.204;2023-02-18T10:03:21;1.85;;;0.73;;
49502;SDS011;35409;48.776;9.204;2023-02-18T10:05:57;2.08;;;1.08;;
49502;SDS011;35409;48.776;9.204;2023-02-18T10:08:27;3.42;;;1.08;;
49502;SDS011;35409;48.776;9.204;2023-02-18T10:10:55;3.60;;;1.02;;
49502;SDS011;35409;48.776;9.204;2023-02-18T10:13:22;3.33;;;1.15;;
49502;SDS011;35409;48.776;9.204;2023-02-18T10:15:50;3.00;;;1.13;;
49502;SDS011;35409;48.776;9.204;2023-02-18T10:18:38;1.98;;;1.30;;
49502;SDS011;35409;48.776;9.204;2023-02-18T10:26:33;2.97;;;1.13;;
49502;SDS011;35409;48.776;9.204;2023-02-18T10:29:01;3.72;;;0.95;;
49502;SDS011;35409;48.776;9.204;2023-02-18T10:31:29;2.92;;;0.82;;
49502;SDS011;35409;48.776;9.204;2023-02-18T10:36:57;2.83;;;1.00;;
49502;SDS011;35409;48.776;9.204;2023-02-18T10:42:15;0.80;;;0.80;;
49502;SDS011;35409;48.776;9.204;2023-02-18T10:45:03;0.70;;;0.70;;
49502;SDS011;35409;48.776;9.204;2023-02-18T10:47:50;3.67;;;0.98;;
49502;SDS011;35409;48.776;9.204;2023-02-18T10:50:36;1.42;;;1.10;;
49502;SDS011;35409;48.776;9.204;2023-02-18T10:53:11;2.03;;;0.80;;
49502;SDS011;35409;48.776;9.204;2023-02-18T10:55:47;1.95;;;0.90;;
49502;SDS011;35409;48.776;9.204;2023-02-18T11:00:52;2.08;;;1.20;;
49502;SDS011;35409;48.776;9.204;2023-02-18T11:03:26;2.90;;;1.08;;
49502;SDS011;35409;48.776;9.204;2023-02-18T11:06:05;2.67;;;0.90;;
49502;SDS011;35409;48.776;9.204;2023-02-18T11:08:51;1.85;;;1.05;;
49502;SDS011;35409;48.776;9.204;2023-02-18T11:11:23;1.17;;;0.65;;
49502;SDS011;35409;48.776;9.204;2023-02-18T11:13:55;3.80;;;0.93;;
49502;SDS011;35409;48.776;9.204;2023-02-18T11:16:34;1.10;;;0.95;;
49502;SDS011;35409;48.776;9.204;2023-02-18T11:22:05;0.95;;;0.90;;
49502;SDS011;35409;48.776;9.204;2023-02-18T11:24:33;2.90;;;1.45;;
49502;SDS011;35409;48.776;9.204;2023-02-18T11:27:07;1.75;;;0.95;;
49502;SDS011;35409;48.776;9.204;2023-02-18T11:29:38;2.80;;;1.48;;
49502;SDS011;35409;48.776;9.204;2023-02-18T11:32:04;1.45;;;1.13;;
49502;SDS011;35409;48.776;9.204;2023-02-18T11:34:36;3.60;;;1.30;;
49502;SDS011;35409;48.776;9.204;2023-02-18T11:37:07;1.50;;;0.82;;
49502;SDS011;35409;48.776;9.204;2023-02-18T11:39:36;1.10;;;0.88;;
49502;SDS011;35409;48.776;9.204;2023-02-18T11:42:10;0.95;;;0.73;;
49502;SDS011;35409;48.776;9.204;2023-02-18T11:49:43;2.42;;;1.10;;
49502;SDS011;35409;48.776;9.204;2023-02-18T11:52:28;2.17;;;1.00;;
49502;SDS011;35409;48.776;9.204;2023-02-18T11:55:05;0.75;;;0.75;;
49502;SDS011;35409;48.776;9.204;2023-02-18T11:57:44;0.95;;;0.82;;
49502;SDS011;35409;48.776;9.204;2023-02-18T12:00:41;0.77;;;0.70;;
49502;SDS011;35409;48.776;9.204;2023-02-18T12:03:17;1.23;;;0.60;;
49502;SDS011;35409;48.776;9.204;2023-02-18T12:06:13;0.90;;;0.57;;
49502;SDS011;35409;48.776;9.204;2023-02-18T12:09:05;0.98;;;0.80;;
49502;SDS011;35409;48.776;9.204;2023-02-18T12:11:30;1.35;;;0.90;;
49502;SDS011;35409;48.776;9.204;2023-02-18T12:14:12;1.08;;;0.60;;
49502;SDS011;35409;48.776;9.204;2023-02-18T12:22:41;0.90;;;0.73;;
49502;SDS011;35409;48.776;9.204;2023-02-18T12:26:21;2.13;;;0.80;;
49502;SDS011;35409;48.776;9.204;2023-02-18T12:34:05;8.15;;;1.67;;
49502;SDS011;35409;48.776;9.204;2023-02-18T12:39:38;1.58;;;0.95;;
49502;SDS011;35409;48.776;9.204;2023-02-18T12:42:35;1.30;;;1.20;;
49502;SDS011;35409;48.776;9.204;2023-02-18T12:54:10;3.30;;;1.10;;
49502;SDS011;35409;48.776;9.204;2023-02-18T13:05:47;2.37;;;1.30;;
49502;SDS011;35409;48.776;9.204;2023-02-18T13:11:10;1.58;;;1.30;;
49502;SDS011;35409;48.776;9.204;2023-02-18T13:16:24;2.03;;;1.40;;
49502;SDS011;35409;48.776;9.204;2023-02-18T13:21:33;1.95;;;1.25;;
49502;SDS011;35409;48.776;9.204;2023-02-18T13:24:08;1.88;;;1.30;;
49502;SDS011;35409;48.776;9.204;2023-02-18T13:26:37;3.72;;;1.45;;
49502;SDS011;35409;48.776;9.204;2023-02-18T13:29:25;2.83;;;1.38;;
49502;SDS011;35409;48.776;9.204;2023-02-18T13:34:54;2.25;;;1.50;;
49502;SDS011;35409;48.776;9.204;2023-02-18T13:37:47;2.83;;;1.42;;
49502;SDS011;35409;48.776;9.204;2023-02-18T13:40:21;4.90;;;1.67;;
49502;SDS011;35409;48.776;9.204;2023-02-18T13:42:52;2.05;;;1.45;;
49502;SDS011;35409;48.776;9.204;2023-02-18T13:45:23;1.85;;;1.38;;
49502;SDS011;35409;48.776;9.204;2023-02-18T13:47:50;2.00;;;1.70;;
49502;SDS011;35409;48.776;9.204;2023-02-18T13:50:22;1.98;;;1.58;;
49502;SDS011;35409;48.776;9.204;2023-02-18T13:53:12;1.70;;;1.30;;
49502;SDS011;35409;48.776;9.204;2023-02-18T13:55:57;2.90;;;1.30;;
49502;SDS011;35409;48.776;9.204;2023-02-18T14:01:22;3.28;;;1.55;;
49502;SDS011;35409;48.776;9.204;2023-02-18T14:04:01;1.48;;;1.05;;
49502;SDS011;35409;48.776;9.204;2023-02-18T14:06:29;1.25;;;1.10;;
49502;SDS011;35409;48.776;9.204;2023-02-18T14:09:03;1.70;;;1.60;;
49502;SDS011;35409;48.776;9.204;2023-02-18T14:11:39;2.08;;;1.55;;
49502;SDS011;35409;48.776;9.204;2023-02-18T14:14:26;1.65;;;1.23;;
49502;SDS011;35409;48.776;9.204;2023-02-18T14:19:42;1.48;;;1.35;;
49502;SDS011;35409;48.776;9.204;2023-02-18T14:22:24;1.60;;;1.50;;
49502;SDS011;35409;48.776;9.204;2023-02-18T14:24:59;2.60;;;1.75;;
49502;SDS011;35409;48.776;9.204;2023-02-18T14:27:36;5.43;;;2.45;;
49502;SDS011;35409;48.776;9.204;2023-02-18T14:30:04;1.95;;;1.42;;
49502;SDS011;35409;48.776;9.204;2023-02-18T14:32:56;2.30;;;2.10;;
49502;SDS011;35409;48.776;9.204;2023-02-18T14:44:22;2.00;;;1.63;;
49502;SDS011;35409;48.776;9.204;2023-02-18T14:49:35;2.70;;;1.42;;
49502;SDS011;35409;48.776;9.204;2023-02-18T14:52:32;6.63;;;1.55;;
49502;SDS011;35409;48.776;9.204;2023-02-18T14:55:05;1.75;;;1.40;;
49502;SDS011;35409;48.776;9.204;2023-02-18T14:57:47;1.95;;;1.60;;
49502;SDS011;35409;48.776;9.204;2023-02-18T15:00:17;2.88;;;1.42;;
49502;SDS011;35409;48.776;9.204;2023-02-18T15:02:47;1.90;;;1.60;;
49502;SDS011;35409;48.776;9.204;2023-02-18T15:05:21;1.77;;;1.58;;
49502;SDS011;35409;48.776;9.204;2023-02-18T15:11:09;3.05;;;1.40;;
49502;SDS011;35409;48.776;9.204;2023-02-18T15:15:57;1.73;;;1.38;;
49502;SDS011;35409;48.776;9.204;2023-02-18T15:21:23;2.85;;;1.33;;
49502;SDS011;35409;48.776;9.204;2023-02-18T15:23:52;4.05;;;1.70;;
49502;SDS011;35409;48.776;9.204;2023-02-18T15:26:18;2.70;;;1.23;;
49502;SDS011;35409;48.776;9.204;2023-02-18T15:29:02;2.88;;;1.75;;
49502;SDS011;35409;48.776;9.204;2023-02-18T15:31:30;2.80;;;2.08;;
49502;SDS011;35409;48.776;9.204;2023-02-18T15:34:00;2.22;;;1.77;;
49502;SDS011;35409;48.776;9.204;2023-02-18T15:36:26;2.88;;;1.60;;
49502;SDS011;35409;48.776;9.204;2023-02-18T15:38:52;2.45;;;1.80;;
49502;SDS011;35409;48.776;9.204;2023-02-18T15:41:20;1.80;;;1.63;;
49502;SDS011;35409;48.776;9.204;2023-02-18T15:43:58;2.13;;;1.30;;
49502;SDS011;35409;48.776;9.204;2023-02-18T15:46:27;3.80;;;1.77;;
49502;SDS011;35409;48.776;9.204;2023-02-18T15:48:54;2.67;;;1.58;;
49502;SDS011;35409;48.776;9.204;2023-02-18T15:51:26;1.30;;;1.20;;
49502;SDS011;35409;48.776;9.204;2023-02-18T15:53:57;1.73;;;1.60;;
49502;SDS011;35409;48.776;9.204;2023-02-18T15:56:36;3.75;;;1.80;;
49502;SDS011;35409;48.776;9.204;2023-02-18T15:59:52;3.55;;;1.60;;
49502;SDS011;35409;48.776;9.204;2023-02-18T16:02:10;3.10;;;1.52;;
49502;SDS011;35409;48.776;9.204;2023-02-18T16:04:44;3.70;;;1.50;;
49502;SDS011;35409;48.776;9.204;2023-02-18T16:09:49;4.13;;;1.70;;
49502;SDS011;35409;48.776;9.204;2023-02-18T16:12:26;2.05;;;1.65;;
49502;SDS011;35409;48.776;9.204;2023-02-18T16:14:54;2.55;;;1.85;;
49502;SDS011;35409;48.776;9.204;2023-02-18T16:17:22;3.13;;;2.00;;
49502;SDS011;35409;48.776;9.204;2023-02-18T16:19:50;2.80;;;2.00;;
49502;SDS011;35409;48.776;9.204;2023-02-18T16:22:32;2.35;;;1.75;;
49502;SDS011;35409;48.776;9.204;2023-02-18T16:25:06;4.43;;;1.63;;
49502;SDS011;35409;48.776;9.204;2023-02-18T16:27:33;1.88;;;1.20;;
49502;SDS011;35409;48.776;9.204;2023-02-18T16:30:14;2.90;;;1.83;;
49502;SDS011;35409;48.776;9.204;2023-02-18T16:32:42;3.08;;;1.88;;
49502;SDS011;35409;48.776;9.204;2023-02-18T16:35:08;2.17;;;1.70;;
49502;SDS011;35409;48.776;9.204;2023-02-18T16:37:34;4.68;;;1.80;;
49502;SDS011;35409;48.776;9.204;2023-02-18T16:40:02;2.58;;;1.60;;
49502;SDS011;35409;48.776;9.204;2023-02-18T16:42:28;2.70;;;1.27;;
49502;SDS011;35409;48.776;9.204;2023-02-18T16:44:54;1.92;;;1.80;;
49502;SDS011;35409;48.776;9.204;2023-02-18T16:47:19;4.30;;;3.42;;
49502;SDS011;35409;48.776;9.204;2023-02-18T16:49:46;3.80;;;2.00;;
49502;SDS011;35409;48.776;9.204;2023-02-18T16:52:14;5.35;;;3.78;;
49502;SDS011;35409;48.776;9.204;2023-02-18T16:54:42;6.85;;;5.18;;
49502;SDS011;35409;48.776;9.204;2023-02-18T16:57:09;3.55;;;1.77;;
49502;SDS011;35409;48.776;9.204;2023-02-18T16:59:37;2.65;;;1.75;;
49502;SDS011;35409;48.776;9.204;2023-02-18T17:02:03;2.92;;;1.42;;
49502;SDS011;35409;48.776;9.204;2023-02-18T17:04:28;1.58;;;1.35;;
49502;SDS011;35409;48.776;9.204;2023-02-18T17:06:54;4.82;;;1.60;;
49502;SDS011;35409;48.776;9.204;2023-02-18T17:09:21;2.97;;;1.75;;
49502;SDS011;35409;48.776;9.204;2023-02-18T17:11:48;2.50;;;1.77;;
49502;SDS011;35409;48.776;9.204;2023-02-18T17:14:16;1.48;;;1.33;;
49502;SDS011;35409;48.776;9.204;2023-02-18T17:16:43;2.15;;;1.60;;
49502;SDS011;35409;48.776;9.204;2023-02-18T17:19:14;2.75;;;1.63;;
49502;SDS011;35409;48.776;9.204;2023-02-18T17:21:40;1.85;;;1.58;;
49502;SDS011;35409;48.776;9.204;2023-02-18T17:24:10;2.55;;;2.03;;